sensor_id;sensor_type;location;lat;lon;timestamp;temperature;humidity
2729;DHT22;1372;47.956;7.830;2023-12-07T00:01:56;2.90;99.90
2729;DHT22;1372;47.956;7.830;2023-12-07T00:04:24;2.90;99.90
2729;DHT22;1372;47.956;7.830;2023-12-07T00:06:53;2.90;99.90
2729;DHT22;1372;47.956;7.830;2023-12-07T00:09:22;3.00;99.90
2729;DHT22;1372;47.956;7.830;2023-12-07T00:11:52;2.90;99.90
2729;DHT22;1372;47.956;7.830;2023-12-07T00:14:23;2.70;99.90
2729;DHT22;1372;47.956;7.830;2023-12-07T00:16:52;2.60;99.90
2729;DHT22;1372;47.956;7.830;2023-12-07T00:19:21;2.70;99.90
2729;DHT22;1372;47.956;7.830;2023-12-07T00:21:50;2.70;99.90
2729;DHT22;1372;47.956;7.830;2023-12-07T00:24:19;2.70;99.90
2729;DHT22;1372;47.956;7.830;2023-12-07T00:26:48;2.80;99.90
2729;DHT22;1372;47.956;7.830;2023-12-07T00:29:18;2.70;99.90
2729;DHT22;1372;47.956;7.830;2023-12-07T00:31:47;2.80;99.90
2729;DHT22;1372;47.956;7.830;2023-12-07T00:34:16;2.70;99.90
2729;DHT22;1372;47.956;7.830;2023-12-07T00:36:46;2.70;99.90
2729;DHT22;1372;47.956;7.830;2023-12-07T00:39:15;2.60;99.90
2729;DHT22;1372;47.956;7.830;2023-12-07T00:41:45;2.60;99.90
2729;DHT22;1372;47.956;7.830;2023-12-07T00:44:15;2.50;99.90
2729;DHT22;1372;47.956;7.830;2023-12-07T00:46:45;2.60;99.90
2729;DHT22;1372;47.956;7.830;2023-12-07T00:49:14;2.70;99.90
2729;DHT22;1372;47.956;7.830;2023-12-07T00:51:43;2.80;99.90
2729;DHT22;1372;47.956;7.830;2023-12-07T00:54:14;2.80;99.90
2729;DHT22;1372;47.956;7.830;2023-12-07T00:56:43;2.80;99.90
2729;DHT22;1372;47.956;7.830;2023-12-07T00:59:14;2.70;99.90
2729;DHT22;1372;47.956;7.830;2023-12-07T01:01:45;2.60;99.90
2729;DHT22;1372;47.956;7.830;2023-12-07T01:04:14;2.40;99.90
2729;DHT22;1372;47.956;7.830;2023-12-07T01:06:43;2.40;99.90
2729;DHT22;1372;47.956;7.830;2023-12-07T01:09:14;2.20;99.90
2729;DHT22;1372;47.956;7.830;2023-12-07T01:11:43;2.10;99.90
2729;DHT22;1372;47.956;7.830;2023-12-07T01:14:12;2.10;99.90
2729;DHT22;1372;47.956;7.830;2023-12-07T01:16:42;2.00;99.90
2729;DHT22;1372;47.956;7.830;2023-12-07T01:19:12;1.90;99.90
2729;DHT22;1372;47.956;7.830;2023-12-07T01:21:42;1.90;99.90
2729;DHT22;1372;47.956;7.830;2023-12-07T01:24:10;2.00;99.90
2729;DHT22;1372;47.956;7.830;2023-12-07T01:26:42;2.00;99.90
2729;DHT22;1372;47.956;7.830;2023-12-07T01:29:11;1.80;99.90
2729;DHT22;1372;47.956;7.830;2023-12-07T01:31:43;1.80;99.90
2729;DHT22;1372;47.956;7.830;2023-12-07T01:34:15;1.80;99.90
2729;DHT22;1372;47.956;7.830;2023-12-07T01:36:45;1.80;99.90
2729;DHT22;1372;47.956;7.830;2023-12-07T01:39:16;1.70;99.90
2729;DHT22;1372;47.956;7.830;2023-12-07T01:41:45;1.60;99.90
2729;DHT22;1372;47.956;7.830;2023-12-07T01:44:14;1.60;99.90
2729;DHT22;1372;47.956;7.830;2023-12-07T01:46:43;1.60;99.90
2729;DHT22;1372;47.956;7.830;2023-12-07T01:49:16;1.60;99.90
2729;DHT22;1372;47.956;7.830;2023-12-07T01:51:45;1.60;99.90
2729;DHT22;1372;47.956;7.830;2023-12-07T01:54:15;1.70;99.90
2729;DHT22;1372;47.956;7.830;2023-12-07T01:56:44;1.80;99.90
2729;DHT22;1372;47.956;7.830;2023-12-07T01:59:13;1.90;99.90
2729;DHT22;1372;47.956;7.830;2023-12-07T02:01:43;1.80;99.90
2729;DHT22;1372;47.956;7.830;2023-12-07T02:04:13;1.70;99.90
2729;DHT22;1372;47.956;7.830;2023-12-07T02:06:46;1.60;99.90
2729;DHT22;1372;47.956;7.830;2023-12-07T02:09:18;1.50;99.90
2729;DHT22;1372;47.956;7.830;2023-12-07T02:11:47;1.30;99.90
2729;DHT22;1372;47.956;7.830;2023-12-07T02:14:16;1.30;99.90
2729;DHT22;1372;47.956;7.830;2023-12-07T02:16:53;1.20;99.90
2729;DHT22;1372;47.956;7.830;2023-12-07T02:19:48;1.10;99.90
2729;DHT22;1372;47.956;7.830;2023-12-07T02:22:26;1.10;99.90
2729;DHT22;1372;47.956;7.830;2023-12-07T02:25:05;1.10;99.90
2729;DHT22;1372;47.956;7.830;2023-12-07T02:27:38;1.00;99.90
2729;DHT22;1372;47.956;7.830;2023-12-07T02:30:09;1.00;99.90
2729;DHT22;1372;47.956;7.830;2023-12-07T02:32:40;1.10;99.90
2729;DHT22;1372;47.956;7.830;2023-12-07T02:35:10;1.20;99.90
2729;DHT22;1372;47.956;7.830;2023-12-07T02:37:44;1.20;99.90
2729;DHT22;1372;47.956;7.830;2023-12-07T02:40:16;1.30;99.90
2729;DHT22;1372;47.956;7.830;2023-12-07T02:42:50;1.30;99.90
2729;DHT22;1372;47.956;7.830;2023-12-07T02:45:20;1.20;99.90
2729;DHT22;1372;47.956;7.830;2023-12-07T02:47:49;1.20;99.90
2729;DHT22;1372;47.956;7.830;2023-12-07T02:50:18;1.20;99.90
2729;DHT22;1372;47.956;7.830;2023-12-07T02:52:47;1.20;99.90
2729;DHT22;1372;47.956;7.830;2023-12-07T02:55:18;1.00;99.90
2729;DHT22;1372;47.956;7.830;2023-12-07T02:57:47;0.90;99.90
2729;DHT22;1372;47.956;7.830;2023-12-07T03:00:19;0.80;99.90
2729;DHT22;1372;47.956;7.830;2023-12-07T03:02:49;0.70;99.90
2729;DHT22;1372;47.956;7.830;2023-12-07T03:05:18;0.70;99.90
2729;DHT22;1372;47.956;7.830;2023-12-07T03:07:47;0.80;99.90
2729;DHT22;1372;47.956;7.830;2023-12-07T03:10:19;0.70;99.90
2729;DHT22;1372;47.956;7.830;2023-12-07T03:12:48;0.70;99.90
2729;DHT22;1372;47.956;7.830;2023-12-07T03:15:20;0.80;99.90
2729;DHT22;1372;47.956;7.830;2023-12-07T03:17:49;0.80;99.90
2729;DHT22;1372;47.956;7.830;2023-12-07T03:20:18;0.70;99.90
2729;DHT22;1372;47.956;7.830;2023-12-07T03:22:47;0.70;99.90
2729;DHT22;1372;47.956;7.830;2023-12-07T03:25:16;0.70;99.90
2729;DHT22;1372;47.956;7.830;2023-12-07T03:27:45;0.70;99.90
2729;DHT22;1372;47.956;7.830;2023-12-07T03:30:13;0.60;99.90
2729;DHT22;1372;47.956;7.830;2023-12-07T03:32:43;0.70;99.90
2729;DHT22;1372;47.956;7.830;2023-12-07T03:35:12;0.70;99.90
2729;DHT22;1372;47.956;7.830;2023-12-07T03:37:43;0.70;99.90
2729;DHT22;1372;47.956;7.830;2023-12-07T03:40:12;0.60;99.90
2729;DHT22;1372;47.956;7.830;2023-12-07T03:42:41;0.50;99.90
2729;DHT22;1372;47.956;7.830;2023-12-07T03:45:14;0.60;99.90
2729;DHT22;1372;47.956;7.830;2023-12-07T03:47:47;0.80;99.90
2729;DHT22;1372;47.956;7.830;2023-12-07T03:50:16;0.60;99.90
2729;DHT22;1372;47.956;7.830;2023-12-07T03:52:45;0.60;99.90
2729;DHT22;1372;47.956;7.830;2023-12-07T03:55:14;0.50;99.90
2729;DHT22;1372;47.956;7.830;2023-12-07T03:57:43;0.50;99.90
2729;DHT22;1372;47.956;7.830;2023-12-07T04:00:12;0.60;99.90
2729;DHT22;1372;47.956;7.830;2023-12-07T04:02:42;0.60;99.90
2729;DHT22;1372;47.956;7.830;2023-12-07T04:05:12;0.50;99.90
2729;DHT22;1372;47.956;7.830;2023-12-07T04:07:41;0.40;99.90
2729;DHT22;1372;47.956;7.830;2023-12-07T04:10:11;0.30;99.90
2729;DHT22;1372;47.956;7.830;2023-12-07T04:12:39;0.20;99.90
2729;DHT22;1372;47.956;7.830;2023-12-07T04:15:10;0.30;99.90
2729;DHT22;1372;47.956;7.830;2023-12-07T04:17:40;0.30;99.90
2729;DHT22;1372;47.956;7.830;2023-12-07T04:20:13;0.20;99.90
2729;DHT22;1372;47.956;7.830;2023-12-07T04:22:43;0.30;99.90
2729;DHT22;1372;47.956;7.830;2023-12-07T04:25:13;0.30;99.90
2729;DHT22;1372;47.956;7.830;2023-12-07T04:27:42;0.30;99.90
2729;DHT22;1372;47.956;7.830;2023-12-07T04:30:11;0.20;99.90
2729;DHT22;1372;47.956;7.830;2023-12-07T04:32:41;0.10;99.90
2729;DHT22;1372;47.956;7.830;2023-12-07T04:35:10;0.10;99.90
2729;DHT22;1372;47.956;7.830;2023-12-07T04:37:42;0.20;99.90
2729;DHT22;1372;47.956;7.830;2023-12-07T04:40:12;0.20;99.90
2729;DHT22;1372;47.956;7.830;2023-12-07T04:42:42;0.10;99.90
2729;DHT22;1372;47.956;7.830;2023-12-07T04:45:11;0.00;99.90
2729;DHT22;1372;47.956;7.830;2023-12-07T04:47:39;0.10;99.90
2729;DHT22;1372;47.956;7.830;2023-12-07T04:50:09;0.10;99.90
2729;DHT22;1372;47.956;7.830;2023-12-07T04:52:38;0.00;99.90
2729;DHT22;1372;47.956;7.830;2023-12-07T04:55:08;-0.10;99.90
2729;DHT22;1372;47.956;7.830;2023-12-07T04:57:37;-0.10;99.90
2729;DHT22;1372;47.956;7.830;2023-12-07T05:00:07;-0.10;99.90
2729;DHT22;1372;47.956;7.830;2023-12-07T05:02:38;-0.20;99.90
2729;DHT22;1372;47.956;7.830;2023-12-07T05:05:07;-0.20;99.90
2729;DHT22;1372;47.956;7.830;2023-12-07T05:07:37;-0.10;99.90
2729;DHT22;1372;47.956;7.830;2023-12-07T05:10:08;-0.10;99.90
2729;DHT22;1372;47.956;7.830;2023-12-07T05:12:38;-0.20;99.90
2729;DHT22;1372;47.956;7.830;2023-12-07T05:15:07;-0.10;99.90
2729;DHT22;1372;47.956;7.830;2023-12-07T05:17:37;-0.10;99.90
2729;DHT22;1372;47.956;7.830;2023-12-07T05:20:07;-0.10;99.90
2729;DHT22;1372;47.956;7.830;2023-12-07T05:22:36;-0.20;99.90
2729;DHT22;1372;47.956;7.830;2023-12-07T05:25:10;-0.20;99.90
2729;DHT22;1372;47.956;7.830;2023-12-07T05:27:39;-0.20;99.90
2729;DHT22;1372;47.956;7.830;2023-12-07T05:30:10;-0.20;99.90
2729;DHT22;1372;47.956;7.830;2023-12-07T05:32:42;-0.30;99.90
2729;DHT22;1372;47.956;7.830;2023-12-07T05:35:13;-0.30;99.90
2729;DHT22;1372;47.956;7.830;2023-12-07T05:37:44;-0.30;99.90
2729;DHT22;1372;47.956;7.830;2023-12-07T05:40:15;-0.20;99.90
2729;DHT22;1372;47.956;7.830;2023-12-07T05:42:45;-0.20;99.90
2729;DHT22;1372;47.956;7.830;2023-12-07T05:45:15;-0.30;99.90
2729;DHT22;1372;47.956;7.830;2023-12-07T05:47:44;-0.30;99.90
2729;DHT22;1372;47.956;7.830;2023-12-07T05:50:16;-0.30;99.90
2729;DHT22;1372;47.956;7.830;2023-12-07T05:52:45;-0.30;99.90
2729;DHT22;1372;47.956;7.830;2023-12-07T05:55:17;-0.40;99.90
2729;DHT22;1372;47.956;7.830;2023-12-07T05:57:46;-0.40;99.90
2729;DHT22;1372;47.956;7.830;2023-12-07T06:00:16;-0.40;99.90
2729;DHT22;1372;47.956;7.830;2023-12-07T06:02:46;-0.40;99.90
2729;DHT22;1372;47.956;7.830;2023-12-07T06:05:15;-0.20;99.90
2729;DHT22;1372;47.956;7.830;2023-12-07T06:07:46;-0.30;99.90
2729;DHT22;1372;47.956;7.830;2023-12-07T06:10:17;-0.20;99.90
2729;DHT22;1372;47.956;7.830;2023-12-07T06:12:45;-0.30;99.90
2729;DHT22;1372;47.956;7.830;2023-12-07T06:15:14;-0.30;99.90
2729;DHT22;1372;47.956;7.830;2023-12-07T06:17:43;-0.30;99.90
2729;DHT22;1372;47.956;7.830;2023-12-07T06:20:12;-0.40;99.90
2729;DHT22;1372;47.956;7.830;2023-12-07T06:22:41;-0.40;99.90
2729;DHT22;1372;47.956;7.830;2023-12-07T06:25:11;-0.40;99.90
2729;DHT22;1372;47.956;7.830;2023-12-07T06:27:41;-0.40;99.90
2729;DHT22;1372;47.956;7.830;2023-12-07T06:30:11;-0.40;99.90
2729;DHT22;1372;47.956;7.830;2023-12-07T06:32:40;-0.30;99.90
2729;DHT22;1372;47.956;7.830;2023-12-07T06:35:11;-0.30;99.90
2729;DHT22;1372;47.956;7.830;2023-12-07T06:37:40;-0.30;99.90
2729;DHT22;1372;47.956;7.830;2023-12-07T06:40:12;-0.30;99.90
2729;DHT22;1372;47.956;7.830;2023-12-07T06:42:43;-0.30;99.90
2729;DHT22;1372;47.956;7.830;2023-12-07T06:45:12;-0.20;99.90
2729;DHT22;1372;47.956;7.830;2023-12-07T06:47:42;-0.30;99.90
2729;DHT22;1372;47.956;7.830;2023-12-07T06:50:10;-0.30;99.90
2729;DHT22;1372;47.956;7.830;2023-12-07T06:52:40;-0.30;99.90
2729;DHT22;1372;47.956;7.830;2023-12-07T06:55:09;-0.30;99.90
2729;DHT22;1372;47.956;7.830;2023-12-07T06:57:38;-0.30;99.90
2729;DHT22;1372;47.956;7.830;2023-12-07T07:00:10;-0.40;99.90
2729;DHT22;1372;47.956;7.830;2023-12-07T07:02:40;-0.50;99.90
2729;DHT22;1372;47.956;7.830;2023-12-07T07:05:08;-0.50;99.90
2729;DHT22;1372;47.956;7.830;2023-12-07T07:07:40;-0.40;99.90
2729;DHT22;1372;47.956;7.830;2023-12-07T07:10:10;-0.40;99.90
2729;DHT22;1372;47.956;7.830;2023-12-07T07:12:40;-0.50;99.90
2729;DHT22;1372;47.956;7.830;2023-12-07T07:15:12;-0.50;99.90
2729;DHT22;1372;47.956;7.830;2023-12-07T07:17:41;-0.50;99.90
2729;DHT22;1372;47.956;7.830;2023-12-07T07:20:10;-0.40;99.90
2729;DHT22;1372;47.956;7.830;2023-12-07T07:22:39;-0.30;99.90
2729;DHT22;1372;47.956;7.830;2023-12-07T07:25:09;-0.30;99.90
2729;DHT22;1372;47.956;7.830;2023-12-07T07:27:38;-0.40;99.90
2729;DHT22;1372;47.956;7.830;2023-12-07T07:30:07;-0.50;99.90
2729;DHT22;1372;47.956;7.830;2023-12-07T07:32:38;-0.50;99.90
2729;DHT22;1372;47.956;7.830;2023-12-07T07:35:07;-0.50;99.90
2729;DHT22;1372;47.956;7.830;2023-12-07T07:37:39;-0.30;99.90
2729;DHT22;1372;47.956;7.830;2023-12-07T07:40:09;-0.40;99.90
2729;DHT22;1372;47.956;7.830;2023-12-07T07:42:39;-0.50;99.90
2729;DHT22;1372;47.956;7.830;2023-12-07T07:45:10;-0.50;99.90
2729;DHT22;1372;47.956;7.830;2023-12-07T07:47:40;-0.50;99.90
2729;DHT22;1372;47.956;7.830;2023-12-07T07:50:09;-0.40;99.90
2729;DHT22;1372;47.956;7.830;2023-12-07T07:52:38;-0.40;99.90
2729;DHT22;1372;47.956;7.830;2023-12-07T07:55:08;-0.50;99.90
2729;DHT22;1372;47.956;7.830;2023-12-07T07:57:38;-0.20;99.90
2729;DHT22;1372;47.956;7.830;2023-12-07T08:00:09;0.00;99.90
2729;DHT22;1372;47.956;7.830;2023-12-07T08:02:41;0.00;99.90
2729;DHT22;1372;47.956;7.830;2023-12-07T08:05:10;0.00;99.90
2729;DHT22;1372;47.956;7.830;2023-12-07T08:07:39;0.00;99.90
2729;DHT22;1372;47.956;7.830;2023-12-07T08:10:12;-0.10;99.90
2729;DHT22;1372;47.956;7.830;2023-12-07T08:12:50;-0.20;99.90
2729;DHT22;1372;47.956;7.830;2023-12-07T08:15:22;-0.10;99.90
2729;DHT22;1372;47.956;7.830;2023-12-07T08:17:58;0.00;99.90
2729;DHT22;1372;47.956;7.830;2023-12-07T08:20:46;0.00;99.90
2729;DHT22;1372;47.956;7.830;2023-12-07T08:23:15;-0.10;99.90
2729;DHT22;1372;47.956;7.830;2023-12-07T08:25:44;-0.10;99.90
2729;DHT22;1372;47.956;7.830;2023-12-07T08:28:13;0.00;99.90
2729;DHT22;1372;47.956;7.830;2023-12-07T08:30:42;0.20;99.90
2729;DHT22;1372;47.956;7.830;2023-12-07T08:33:12;0.30;99.90
2729;DHT22;1372;47.956;7.830;2023-12-07T08:35:41;0.30;99.90
2729;DHT22;1372;47.956;7.830;2023-12-07T08:38:11;0.30;99.90
2729;DHT22;1372;47.956;7.830;2023-12-07T08:40:40;0.30;99.90
2729;DHT22;1372;47.956;7.830;2023-12-07T08:43:12;0.40;99.90
2729;DHT22;1372;47.956;7.830;2023-12-07T08:45:42;0.40;99.90
2729;DHT22;1372;47.956;7.830;2023-12-07T08:48:13;0.50;99.90
2729;DHT22;1372;47.956;7.830;2023-12-07T08:50:42;0.40;99.90
2729;DHT22;1372;47.956;7.830;2023-12-07T08:53:11;0.50;99.90
2729;DHT22;1372;47.956;7.830;2023-12-07T08:55:40;0.60;99.90
2729;DHT22;1372;47.956;7.830;2023-12-07T08:58:09;0.70;99.90
2729;DHT22;1372;47.956;7.830;2023-12-07T09:00:38;0.70;99.90
2729;DHT22;1372;47.956;7.830;2023-12-07T09:03:07;0.80;99.90
2729;DHT22;1372;47.956;7.830;2023-12-07T09:05:38;0.90;99.90
2729;DHT22;1372;47.956;7.830;2023-12-07T09:08:07;0.90;99.90
2729;DHT22;1372;47.956;7.830;2023-12-07T09:10:37;1.00;99.90
2729;DHT22;1372;47.956;7.830;2023-12-07T09:13:06;0.90;99.90
2729;DHT22;1372;47.956;7.830;2023-12-07T09:15:34;0.90;99.90
2729;DHT22;1372;47.956;7.830;2023-12-07T09:18:04;0.80;99.90
2729;DHT22;1372;47.956;7.830;2023-12-07T09:20:35;1.00;99.90
2729;DHT22;1372;47.956;7.830;2023-12-07T09:23:13;1.10;99.90
2729;DHT22;1372;47.956;7.830;2023-12-07T09:25:43;1.20;99.90
2729;DHT22;1372;47.956;7.830;2023-12-07T09:28:12;1.10;99.90
2729;DHT22;1372;47.956;7.830;2023-12-07T09:30:43;1.10;99.90
2729;DHT22;1372;47.956;7.830;2023-12-07T09:33:12;1.20;99.90
2729;DHT22;1372;47.956;7.830;2023-12-07T09:35:43;1.10;99.90
2729;DHT22;1372;47.956;7.830;2023-12-07T09:38:11;1.20;99.90
2729;DHT22;1372;47.956;7.830;2023-12-07T09:40:40;1.10;99.90
2729;DHT22;1372;47.956;7.830;2023-12-07T09:43:09;1.10;99.90
2729;DHT22;1372;47.956;7.830;2023-12-07T09:45:39;1.20;99.90
2729;DHT22;1372;47.956;7.830;2023-12-07T09:48:08;1.40;99.90
2729;DHT22;1372;47.956;7.830;2023-12-07T09:50:37;1.50;99.90
2729;DHT22;1372;47.956;7.830;2023-12-07T09:53:08;1.60;99.90
2729;DHT22;1372;47.956;7.830;2023-12-07T09:55:37;1.70;99.90
2729;DHT22;1372;47.956;7.830;2023-12-07T09:58:06;1.70;99.90
2729;DHT22;1372;47.956;7.830;2023-12-07T10:00:38;1.70;99.90
2729;DHT22;1372;47.956;7.830;2023-12-07T10:03:08;1.70;99.90
2729;DHT22;1372;47.956;7.830;2023-12-07T10:05:54;1.80;99.90
2729;DHT22;1372;47.956;7.830;2023-12-07T10:08:29;1.80;99.90
2729;DHT22;1372;47.956;7.830;2023-12-07T10:11:07;1.90;99.90
2729;DHT22;1372;47.956;7.830;2023-12-07T10:13:37;2.00;99.90
2729;DHT22;1372;47.956;7.830;2023-12-07T10:16:10;2.10;99.90
2729;DHT22;1372;47.956;7.830;2023-12-07T10:18:40;2.20;99.90
2729;DHT22;1372;47.956;7.830;2023-12-07T10:21:10;2.20;99.90
2729;DHT22;1372;47.956;7.830;2023-12-07T10:23:42;2.20;99.90
2729;DHT22;1372;47.956;7.830;2023-12-07T10:26:16;2.30;99.90
2729;DHT22;1372;47.956;7.830;2023-12-07T10:28:49;2.30;99.90
2729;DHT22;1372;47.956;7.830;2023-12-07T10:31:33;2.40;99.90
2729;DHT22;1372;47.956;7.830;2023-12-07T10:34:02;2.40;99.90
2729;DHT22;1372;47.956;7.830;2023-12-07T10:36:32;2.40;99.90
2729;DHT22;1372;47.956;7.830;2023-12-07T10:39:03;2.30;99.90
2729;DHT22;1372;47.956;7.830;2023-12-07T10:41:42;2.30;99.90
2729;DHT22;1372;47.956;7.830;2023-12-07T10:44:14;2.30;99.90
2729;DHT22;1372;47.956;7.830;2023-12-07T10:46:43;2.40;99.90
2729;DHT22;1372;47.956;7.830;2023-12-07T10:49:19;2.40;99.90
2729;DHT22;1372;47.956;7.830;2023-12-07T10:51:59;2.40;99.90
2729;DHT22;1372;47.956;7.830;2023-12-07T10:54:43;2.30;99.90
2729;DHT22;1372;47.956;7.830;2023-12-07T10:57:17;2.40;99.90
2729;DHT22;1372;47.956;7.830;2023-12-07T10:59:48;2.50;99.90
2729;DHT22;1372;47.956;7.830;2023-12-07T11:02:19;2.60;99.90
2729;DHT22;1372;47.956;7.830;2023-12-07T11:04:50;2.60;99.90
2729;DHT22;1372;47.956;7.830;2023-12-07T11:07:21;2.50;99.90
2729;DHT22;1372;47.956;7.830;2023-12-07T11:09:58;2.40;99.90
2729;DHT22;1372;47.956;7.830;2023-12-07T11:12:35;2.40;99.90
2729;DHT22;1372;47.956;7.830;2023-12-07T11:15:08;2.40;99.90
2729;DHT22;1372;47.956;7.830;2023-12-07T11:17:54;2.40;99.90
2729;DHT22;1372;47.956;7.830;2023-12-07T11:20:32;2.30;99.90
2729;DHT22;1372;47.956;7.830;2023-12-07T11:23:08;2.30;99.90
2729;DHT22;1372;47.956;7.830;2023-12-07T11:25:39;2.40;99.90
2729;DHT22;1372;47.956;7.830;2023-12-07T11:28:10;2.40;99.90
2729;DHT22;1372;47.956;7.830;2023-12-07T11:30:42;2.40;99.90
2729;DHT22;1372;47.956;7.830;2023-12-07T11:33:13;2.50;99.90
2729;DHT22;1372;47.956;7.830;2023-12-07T11:36:06;2.60;99.90
2729;DHT22;1372;47.956;7.830;2023-12-07T11:38:55;2.70;99.90
2729;DHT22;1372;47.956;7.830;2023-12-07T11:42:06;2.80;99.90
2729;DHT22;1372;47.956;7.830;2023-12-07T11:44:38;3.00;99.90
2729;DHT22;1372;47.956;7.830;2023-12-07T11:47:07;3.00;99.90
2729;DHT22;1372;47.956;7.830;2023-12-07T11:49:37;3.00;99.90
2729;DHT22;1372;47.956;7.830;2023-12-07T11:52:15;3.00;99.90
2729;DHT22;1372;47.956;7.830;2023-12-07T11:54:45;3.10;99.90
2729;DHT22;1372;47.956;7.830;2023-12-07T11:57:18;3.30;99.90
2729;DHT22;1372;47.956;7.830;2023-12-07T11:59:48;3.30;99.90
2729;DHT22;1372;47.956;7.830;2023-12-07T12:02:17;3.30;99.90
2729;DHT22;1372;47.956;7.830;2023-12-07T12:04:46;3.30;99.90
2729;DHT22;1372;47.956;7.830;2023-12-07T12:07:16;3.30;99.90
2729;DHT22;1372;47.956;7.830;2023-12-07T12:09:45;3.30;99.90
2729;DHT22;1372;47.956;7.830;2023-12-07T12:12:15;3.20;99.90
2729;DHT22;1372;47.956;7.830;2023-12-07T12:14:48;3.10;99.90
2729;DHT22;1372;47.956;7.830;2023-12-07T12:17:17;3.20;99.90
2729;DHT22;1372;47.956;7.830;2023-12-07T12:19:47;3.30;99.90
2729;DHT22;1372;47.956;7.830;2023-12-07T12:22:22;3.30;99.90
2729;DHT22;1372;47.956;7.830;2023-12-07T12:24:52;3.10;99.90
2729;DHT22;1372;47.956;7.830;2023-12-07T12:27:21;3.00;99.90
2729;DHT22;1372;47.956;7.830;2023-12-07T12:29:52;3.00;99.90
2729;DHT22;1372;47.956;7.830;2023-12-07T12:32:21;2.90;99.90
2729;DHT22;1372;47.956;7.830;2023-12-07T12:34:51;2.70;99.90
2729;DHT22;1372;47.956;7.830;2023-12-07T12:37:20;2.80;99.90
2729;DHT22;1372;47.956;7.830;2023-12-07T12:39:49;2.80;99.90
2729;DHT22;1372;47.956;7.830;2023-12-07T12:42:18;2.70;99.90
2729;DHT22;1372;47.956;7.830;2023-12-07T12:44:48;2.60;99.90
2729;DHT22;1372;47.956;7.830;2023-12-07T12:47:18;2.70;99.90
2729;DHT22;1372;47.956;7.830;2023-12-07T12:49:49;2.70;99.90
2729;DHT22;1372;47.956;7.830;2023-12-07T12:52:20;2.70;99.90
2729;DHT22;1372;47.956;7.830;2023-12-07T12:54:49;2.80;99.90
2729;DHT22;1372;47.956;7.830;2023-12-07T12:57:21;2.80;99.90
2729;DHT22;1372;47.956;7.830;2023-12-07T12:59:51;2.80;99.90
2729;DHT22;1372;47.956;7.830;2023-12-07T13:02:23;2.80;99.90
2729;DHT22;1372;47.956;7.830;2023-12-07T13:04:52;2.70;99.90
2729;DHT22;1372;47.956;7.830;2023-12-07T13:07:23;2.70;99.90
2729;DHT22;1372;47.956;7.830;2023-12-07T13:09:54;2.70;99.90
2729;DHT22;1372;47.956;7.830;2023-12-07T13:12:23;2.70;99.90
2729;DHT22;1372;47.956;7.830;2023-12-07T13:14:55;2.70;99.90
2729;DHT22;1372;47.956;7.830;2023-12-07T13:17:27;2.60;99.90
2729;DHT22;1372;47.956;7.830;2023-12-07T13:19:56;2.50;99.90
2729;DHT22;1372;47.956;7.830;2023-12-07T13:22:25;2.50;99.90
2729;DHT22;1372;47.956;7.830;2023-12-07T13:24:54;2.50;99.90
2729;DHT22;1372;47.956;7.830;2023-12-07T13:27:23;2.60;99.90
2729;DHT22;1372;47.956;7.830;2023-12-07T13:29:54;2.80;99.90
2729;DHT22;1372;47.956;7.830;2023-12-07T13:32:23;2.90;99.90
2729;DHT22;1372;47.956;7.830;2023-12-07T13:34:54;2.90;99.90
2729;DHT22;1372;47.956;7.830;2023-12-07T13:37:23;2.90;99.90
2729;DHT22;1372;47.956;7.830;2023-12-07T13:39:54;2.70;99.90
2729;DHT22;1372;47.956;7.830;2023-12-07T13:42:26;2.80;99.90
2729;DHT22;1372;47.956;7.830;2023-12-07T13:44:56;2.90;99.90
2729;DHT22;1372;47.956;7.830;2023-12-07T13:47:25;2.80;99.90
2729;DHT22;1372;47.956;7.830;2023-12-07T13:50:00;2.80;99.90
2729;DHT22;1372;47.956;7.830;2023-12-07T13:52:31;2.80;99.90
2729;DHT22;1372;47.956;7.830;2023-12-07T13:55:00;2.70;99.90
2729;DHT22;1372;47.956;7.830;2023-12-07T13:57:29;2.70;99.90
2729;DHT22;1372;47.956;7.830;2023-12-07T13:59:58;2.70;99.90
2729;DHT22;1372;47.956;7.830;2023-12-07T14:02:29;2.60;99.90
2729;DHT22;1372;47.956;7.830;2023-12-07T14:04:59;2.60;99.90
2729;DHT22;1372;47.956;7.830;2023-12-07T14:07:28;2.50;99.90
2729;DHT22;1372;47.956;7.830;2023-12-07T14:09:57;2.50;99.90
2729;DHT22;1372;47.956;7.830;2023-12-07T14:12:26;2.40;99.90
2729;DHT22;1372;47.956;7.830;2023-12-07T14:14:55;2.60;99.90
2729;DHT22;1372;47.956;7.830;2023-12-07T14:17:24;2.60;99.90
2729;DHT22;1372;47.956;7.830;2023-12-07T14:20:00;2.60;99.90
2729;DHT22;1372;47.956;7.830;2023-12-07T14:22:37;2.60;99.90
2729;DHT22;1372;47.956;7.830;2023-12-07T14:25:07;2.50;99.90
2729;DHT22;1372;47.956;7.830;2023-12-07T14:27:36;2.50;99.90
2729;DHT22;1372;47.956;7.830;2023-12-07T14:30:06;2.60;99.90
2729;DHT22;1372;47.956;7.830;2023-12-07T14:32:38;2.50;99.90
2729;DHT22;1372;47.956;7.830;2023-12-07T14:35:12;2.50;99.90
2729;DHT22;1372;47.956;7.830;2023-12-07T14:37:41;2.40;99.90
2729;DHT22;1372;47.956;7.830;2023-12-07T14:40:11;2.40;99.90
2729;DHT22;1372;47.956;7.830;2023-12-07T14:42:42;2.50;99.90
2729;DHT22;1372;47.956;7.830;2023-12-07T14:45:11;2.50;99.90
2729;DHT22;1372;47.956;7.830;2023-12-07T14:47:45;2.50;99.90
2729;DHT22;1372;47.956;7.830;2023-12-07T14:50:16;2.50;99.90
2729;DHT22;1372;47.956;7.830;2023-12-07T14:52:46;2.50;99.90
2729;DHT22;1372;47.956;7.830;2023-12-07T14:55:18;2.40;99.90
2729;DHT22;1372;47.956;7.830;2023-12-07T14:57:48;2.40;99.90
2729;DHT22;1372;47.956;7.830;2023-12-07T15:00:18;2.30;99.90
2729;DHT22;1372;47.956;7.830;2023-12-07T15:02:47;2.30;99.90
2729;DHT22;1372;47.956;7.830;2023-12-07T15:05:18;2.30;99.90
2729;DHT22;1372;47.956;7.830;2023-12-07T15:07:47;2.40;99.90
2729;DHT22;1372;47.956;7.830;2023-12-07T15:10:16;2.40;99.90
2729;DHT22;1372;47.956;7.830;2023-12-07T15:12:48;2.30;99.90
2729;DHT22;1372;47.956;7.830;2023-12-07T15:15:19;2.30;99.90
2729;DHT22;1372;47.956;7.830;2023-12-07T15:17:48;2.20;99.90
2729;DHT22;1372;47.956;7.830;2023-12-07T15:20:19;2.20;99.90
2729;DHT22;1372;47.956;7.830;2023-12-07T15:22:48;2.20;99.90
2729;DHT22;1372;47.956;7.830;2023-12-07T15:25:17;2.30;99.90
2729;DHT22;1372;47.956;7.830;2023-12-07T15:27:46;2.30;99.90
2729;DHT22;1372;47.956;7.830;2023-12-07T15:30:16;2.20;99.90
2729;DHT22;1372;47.956;7.830;2023-12-07T15:32:48;2.30;99.90
2729;DHT22;1372;47.956;7.830;2023-12-07T15:35:19;2.40;99.90
2729;DHT22;1372;47.956;7.830;2023-12-07T15:37:48;2.40;99.90
2729;DHT22;1372;47.956;7.830;2023-12-07T15:40:17;2.30;99.90
2729;DHT22;1372;47.956;7.830;2023-12-07T15:42:46;2.10;99.90
2729;DHT22;1372;47.956;7.830;2023-12-07T15:45:18;2.10;99.90
2729;DHT22;1372;47.956;7.830;2023-12-07T15:47:47;2.00;99.90
2729;DHT22;1372;47.956;7.830;2023-12-07T15:50:16;2.10;99.90
2729;DHT22;1372;47.956;7.830;2023-12-07T15:52:47;2.20;99.90
2729;DHT22;1372;47.956;7.830;2023-12-07T15:55:16;2.30;99.90
2729;DHT22;1372;47.956;7.830;2023-12-07T15:57:48;2.20;99.90
2729;DHT22;1372;47.956;7.830;2023-12-07T16:00:17;2.30;99.90
2729;DHT22;1372;47.956;7.830;2023-12-07T16:02:46;2.10;99.90
2729;DHT22;1372;47.956;7.830;2023-12-07T16:05:15;2.00;99.90
2729;DHT22;1372;47.956;7.830;2023-12-07T16:07:47;2.00;99.90
2729;DHT22;1372;47.956;7.830;2023-12-07T16:10:16;2.00;99.90
2729;DHT22;1372;47.956;7.830;2023-12-07T16:12:47;2.00;99.90
2729;DHT22;1372;47.956;7.830;2023-12-07T16:15:19;2.00;99.90
2729;DHT22;1372;47.956;7.830;2023-12-07T16:17:49;2.00;99.90
2729;DHT22;1372;47.956;7.830;2023-12-07T16:20:19;2.00;99.90
2729;DHT22;1372;47.956;7.830;2023-12-07T16:22:50;1.90;99.90
2729;DHT22;1372;47.956;7.830;2023-12-07T16:25:19;1.80;99.90
2729;DHT22;1372;47.956;7.830;2023-12-07T16:27:49;1.70;99.90
2729;DHT22;1372;47.956;7.830;2023-12-07T16:30:19;1.80;99.90
2729;DHT22;1372;47.956;7.830;2023-12-07T16:32:48;1.70;99.90
2729;DHT22;1372;47.956;7.830;2023-12-07T16:35:23;1.60;99.90
2729;DHT22;1372;47.956;7.830;2023-12-07T16:37:54;1.60;99.90